This is the latest recevied weather packets stored in our database for station/object CE3UOB-10. If no packets are shown the sender has not sent any weather packets the latest 1 day(s).
| Time | Temp. | Humidity | Pressure | Rain* | Wind** | Luminosity | Snow |
|---|---|---|---|---|---|---|---|
| 1777880917 | 10° C | 48% | 995.2 hPa | - | - | - | - |
| 1777879116 | 10.56° C | 47% | 995.5 hPa | - | - | - | - |
| 1777877316 | 10.56° C | 48% | 995.7 hPa | - | - | - | - |
| 1777875522 | 11.11° C | 49% | 995.8 hPa | - | - | - | - |
| 1777875516 | 11.11° C | 49% | 995.8 hPa | - | - | - | - |
| 1777873716 | 11.11° C | 48% | 996.1 hPa | - | - | - | - |
| 1777871922 | 10.56° C | 47% | 996.4 hPa | - | - | - | - |
| 1777871916 | 10.56° C | 47% | 996.4 hPa | - | - | - | - |
| 1777870115 | 10° C | 48% | 996.8 hPa | - | - | - | - |
| 1777868315 | 11.67° C | 47% | 996.7 hPa | - | - | - | - |
| 1777866515 | 11.67° C | 47% | 996.7 hPa | - | - | - | - |
| 1777864722 | 12.22° C | 48% | 996.7 hPa | - | - | - | - |
| 1777864715 | 12.22° C | 48% | 996.7 hPa | - | - | - | - |
| 1777862922 | 12.78° C | 45% | 996.9 hPa | - | - | - | - |
| 1777862915 | 12.78° C | 45% | 996.9 hPa | - | - | - | - |
| 1777861123 | 13.33° C | 45% | 996.7 hPa | - | - | - | - |
| 1777861113 | 13.33° C | 45% | 996.7 hPa | - | - | - | - |
| 1777859324 | 12.78° C | 46% | 996.8 hPa | - | - | - | - |
| 1777859319 | 12.78° C | 46% | 996.8 hPa | - | - | - | - |
| 1777857518 | 13.33° C | 43% | 996.6 hPa | - | - | - | - |
| 1777855718 | 13.89° C | 45% | 996.6 hPa | - | - | - | - |
| 1777853918 | 15.56° C | 43% | 996.5 hPa | - | - | - | - |
| 1777852118 | 16.67° C | 42% | 996.2 hPa | - | - | - | - |
| 1777850318 | 17.22° C | 41% | 996.1 hPa | - | - | - | - |
| 1777848518 | 18.33° C | 33% | 996 hPa | - | - | - | - |
* Rain since midnight (hover to see other rain measurements)
** Current wind speed in m/s (hover to see current wind gust speed)